Time;durP1;ratioP1;P1;durP2;ratioP2;P2;SDS_P1;SDS_P2;PMS_P1;PMS_P2;Temp;Humidity;BMP_temperature;BMP_pressure;BME280_temperature;BME280_humidity;BME280_pressure;Samples;Min_cycle;Max_cycle;Signal;HPM_P1;HPM_P2
2022/09/26 00:01:15;;;;;;;;;;;435.30;2355.20;;;;;;5107521;28;19908;-69
2022/09/26 00:03:42;;;;;;;;;;;435.20;2355.20;;;;;;5106829;28;19989;-65
2022/09/26 00:06:08;;;;;;;;;;;435.20;2355.20;;;;;;5107359;28;20019;-62
2022/09/26 00:08:34;;;;;;;;;;;410.50;2355.20;;;;;;5107310;28;19956;-62
2022/09/26 00:11:00;;;;;;;;;;;410.50;2355.20;;;;;;5107086;28;20010;-66
2022/09/26 00:13:27;;;;;;;;;;;410.50;2355.20;;;;;;5107407;28;19908;-70
2022/09/26 00:15:53;;;;;;;;;;;410.50;2355.20;;;;;;5096755;28;20302;-62
2022/09/26 00:18:18;;;;;;;;;;;410.50;2355.20;;;;;;5093475;28;19916;-64
2022/09/26 00:20:44;;;;;;;;;;;410.40;2355.20;;;;;;5093750;28;19908;-69
2022/09/26 00:23:10;;;;;;;;;;;410.30;2355.20;;;;;;5093166;28;19922;-63
2022/09/26 00:25:35;;;;;;;;;;;410.40;2355.20;;;;;;5093253;28;19914;-70
2022/09/26 00:28:01;;;;;;;;;;;410.50;2355.20;;;;;;5093150;28;19908;-63
2022/09/26 00:30:26;;;;;;;;;;;410.50;2355.20;;;;;;5093380;28;19912;-66
2022/09/26 00:32:52;;;;;;;;;;;410.50;2355.20;;;;;;5093012;28;20378;-62
2022/09/26 00:35:17;;;;;;;;;;;410.50;2355.20;;;;;;5093437;28;19947;-63
2022/09/26 00:37:43;;;;;;;;;;;410.50;2355.20;;;;;;5093481;28;20377;-67
2022/09/26 00:40:08;;;;;;;;;;;410.50;2355.20;;;;;;5092766;28;19915;-62
2022/09/26 00:42:34;;;;;;;;;;;410.50;2355.20;;;;;;5093271;28;19915;-66
2022/09/26 00:45:00;;;;;;;;;;;410.50;2355.20;;;;;;5092755;28;19951;-67
2022/09/26 00:47:36;;;;;;;;;;;410.50;2355.20;;;;;;5093113;28;19908;-66
2022/09/26 00:50:05;;;;;;;;;;;435.20;2355.20;;;;;;5092760;28;20274;-66
2022/09/26 00:52:36;;;;;;;;;;;435.30;2355.20;;;;;;5092709;28;19908;-67
2022/09/26 00:55:03;;;;;;;;;;;435.20;2355.20;;;;;;5092845;28;19915;-62
2022/09/26 00:57:34;;;;;;;;;;;435.20;2355.20;;;;;;5092626;28;20380;-68
2022/09/26 01:00:01;;;;;;;;;;;435.30;2355.20;;;;;;5092530;28;19931;-62
2022/09/26 01:02:27;;;;;;;;;;;435.30;2355.20;;;;;;5092775;28;19957;-62
2022/09/26 01:04:54;;;;;;;;;;;435.40;2355.20;;;;;;5092265;28;20005;-62
2022/09/26 01:07:20;;;;;;;;;;;435.50;2355.20;;;;;;5092360;28;20500;-63
2022/09/26 01:09:46;;;;;;;;;;;435.60;2355.20;;;;;;5092601;28;19908;-69
2022/09/26 01:12:12;;;;;;;;;;;435.60;2355.20;;;;;;5092694;28;20277;-68
2022/09/26 01:14:39;;;;;;;;;;;435.60;2355.20;;;;;;5092304;28;19918;-62
2022/09/26 01:17:04;;;;;;;;;;;435.40;2355.20;;;;;;5092453;28;19954;-68
2022/09/26 01:19:39;;;;;;;;;;;435.30;2355.20;;;;;;5092244;28;19948;-62
2022/09/26 01:22:23;;;;;;;;;;;435.30;2355.20;;;;;;5092293;28;19908;-68
2022/09/26 01:24:52;;;;;;;;;;;435.20;2355.20;;;;;;5091983;28;19916;-62
2022/09/26 01:27:17;;;;;;;;;;;435.20;2355.20;;;;;;5091104;28;19962;-63
2022/09/26 01:30:01;;;;;;;;;;;435.30;2355.20;;;;;;5092322;28;19908;-68
2022/09/26 01:32:48;;;;;;;;;;;435.30;2355.20;;;;;;5092127;28;20028;-66
2022/09/26 01:35:21;;;;;;;;;;;435.20;2355.20;;;;;;5092216;28;19916;-67
2022/09/26 01:38:01;;;;;;;;;;;410.50;2355.20;;;;;;5092198;28;19919;-65
2022/09/26 01:40:37;;;;;;;;;;;410.50;2355.20;;;;;;5091845;28;20068;-63
2022/09/26 01:43:06;;;;;;;;;;;410.50;2355.20;;;;;;5091973;28;19912;-69
2022/09/26 01:45:51;;;;;;;;;;;435.20;2355.20;;;;;;5091575;28;19916;-67
2022/09/26 01:48:19;;;;;;;;;;;435.20;2355.20;;;;;;5091886;28;20564;-67
2022/09/26 01:51:10;;;;;;;;;;;435.30;2355.20;;;;;;5091985;28;19915;-68
2022/09/26 01:53:36;;;;;;;;;;;435.40;2355.20;;;;;;5090577;28;19908;-67
2022/09/26 01:56:03;;;;;;;;;;;435.40;2355.20;;;;;;5091596;28;19916;-68
2022/09/26 01:58:34;;;;;;;;;;;435.50;2355.20;;;;;;5091484;28;19915;-68
2022/09/26 02:01:02;;;;;;;;;;;435.30;2355.20;;;;;;5090207;28;20010;-68
2022/09/26 02:03:30;;;;;;;;;;;435.20;2355.20;;;;;;5090970;28;19930;-63
2022/09/26 02:05:56;;;;;;;;;;;410.50;2355.20;;;;;;5091429;28;19990;-68
2022/09/26 02:08:24;;;;;;;;;;;435.30;2355.20;;;;;;5091252;28;19943;-63
2022/09/26 02:10:52;;;;;;;;;;;435.40;2355.20;;;;;;5091052;28;19909;-63
2022/09/26 02:13:28;;;;;;;;;;;435.40;2355.20;;;;;;5091191;28;20259;-64
2022/09/26 02:15:56;;;;;;;;;;;410.50;2355.20;;;;;;5091453;28;19948;-68
2022/09/26 02:18:30;;;;;;;;;;;435.20;2355.20;;;;;;5089949;28;19915;-63
2022/09/26 02:21:16;;;;;;;;;;;410.50;2355.20;;;;;;5091385;28;19977;-68
2022/09/26 02:23:41;;;;;;;;;;;410.50;2355.20;;;;;;5090518;28;19963;-68
2022/09/26 02:26:07;;;;;;;;;;;435.20;2355.20;;;;;;5091223;28;20109;-64
2022/09/26 02:28:32;;;;;;;;;;;435.30;2355.20;;;;;;5090955;28;19908;-67
2022/09/26 02:31:00;;;;;;;;;;;435.30;2355.20;;;;;;5090982;28;19908;-63
2022/09/26 02:33:26;;;;;;;;;;;435.30;2355.20;;;;;;5090849;28;19960;-67
2022/09/26 02:35:55;;;;;;;;;;;435.30;2355.20;;;;;;5091088;28;19930;-68
2022/09/26 02:38:25;;;;;;;;;;;435.40;2355.20;;;;;;5090499;28;19909;-63
2022/09/26 02:40:50;;;;;;;;;;;435.50;2355.20;;;;;;5090800;28;19908;-66
2022/09/26 02:43:22;;;;;;;;;;;435.50;2355.20;;;;;;5090911;28;19920;-69
2022/09/26 02:45:53;;;;;;;;;;;435.50;2355.20;;;;;;5090846;28;19908;-63
2022/09/26 02:48:25;;;;;;;;;;;435.60;2355.20;;;;;;5090570;28;20319;-64
2022/09/26 02:51:03;;;;;;;;;;;435.60;2355.20;;;;;;5090627;28;20351;-66
2022/09/26 02:53:31;;;;;;;;;;;435.60;2355.20;;;;;;5090673;28;19908;-63
2022/09/26 02:56:03;;;;;;;;;;;435.60;2355.20;;;;;;5090561;28;20389;-63
2022/09/26 02:58:41;;;;;;;;;;;435.70;2355.20;;;;;;5091202;28;19915;-65
2022/09/26 03:01:14;;;;;;;;;;;435.70;2355.20;;;;;;5090749;28;19915;-68
2022/09/26 03:03:46;;;;;;;;;;;435.70;2355.20;;;;;;5090134;28;20015;-63
2022/09/26 03:06:14;;;;;;;;;;;435.90;2355.20;;;;;;5090488;28;19908;-69
2022/09/26 03:08:41;;;;;;;;;;;435.90;2355.20;;;;;;5090581;28;20310;-67
2022/09/26 03:11:09;;;;;;;;;;;435.90;2355.20;;;;;;5090592;28;19919;-63
2022/09/26 03:13:36;;;;;;;;;;;435.90;2355.20;;;;;;5090719;28;19908;-69
2022/09/26 03:16:02;;;;;;;;;;;435.90;2355.20;;;;;;5090395;28;19908;-69
2022/09/26 03:18:35;;;;;;;;;;;435.90;2355.20;;;;;;5090614;28;19915;-63
2022/09/26 03:21:01;;;;;;;;;;;435.80;2355.20;;;;;;5090378;28;19915;-67
2022/09/26 03:23:27;;;;;;;;;;;435.80;2355.20;;;;;;5090471;28;20324;-64
2022/09/26 03:26:23;;;;;;;;;;;435.90;2355.20;;;;;;5090330;28;19951;-63
2022/09/26 03:28:50;;;;;;;;;;;435.90;2355.20;;;;;;5047872;28;19913;-64
2022/09/26 03:31:17;;;;;;;;;;;435.90;2355.20;;;;;;5048302;28;19909;-64
2022/09/26 03:33:43;;;;;;;;;;;435.90;2355.20;;;;;;5048012;28;20450;-63
2022/09/26 03:36:08;;;;;;;;;;;435.90;2355.20;;;;;;5047790;28;20007;-63
2022/09/26 03:38:34;;;;;;;;;;;435.90;2355.20;;;;;;5047957;28;19962;-69
2022/09/26 03:41:01;;;;;;;;;;;435.90;2355.20;;;;;;5047781;28;19917;-63
2022/09/26 03:43:26;;;;;;;;;;;435.90;2355.20;;;;;;5047833;28;19920;-69
2022/09/26 03:45:53;;;;;;;;;;;435.90;2355.20;;;;;;5047733;28;19913;-63
2022/09/26 03:48:19;;;;;;;;;;;435.90;2355.20;;;;;;5047754;28;19909;-64
2022/09/26 03:50:45;;;;;;;;;;;436.00;2355.20;;;;;;5049920;28;20317;-69
2022/09/26 03:53:10;;;;;;;;;;;436.00;2355.20;;;;;;5051691;28;19970;-63
2022/09/26 03:55:36;;;;;;;;;;;436.00;2355.20;;;;;;5051565;28;20359;-69
2022/09/26 03:58:01;;;;;;;;;;;436.00;2355.20;;;;;;5051379;28;20267;-67
2022/09/26 04:00:27;;;;;;;;;;;436.00;2355.20;;;;;;5051597;28;19919;-62
2022/09/26 04:02:52;;;;;;;;;;;436.10;2355.20;;;;;;5050879;28;20390;-63
2022/09/26 04:05:18;;;;;;;;;;;436.10;2355.20;;;;;;5074906;28;20397;-64
2022/09/26 04:07:43;;;;;;;;;;;460.80;2380.80;;;;;;5092913;28;19916;-66
2022/09/26 04:10:12;;;;;;;;;;;460.80;2380.80;;;;;;5093503;28;19915;-64
2022/09/26 04:12:38;;;;;;;;;;;460.80;2380.80;;;;;;5093621;28;19912;-63
2022/09/26 04:15:05;;;;;;;;;;;460.80;2380.80;;;;;;5093742;28;19909;-62
2022/09/26 04:17:31;;;;;;;;;;;460.90;2380.80;;;;;;5093496;28;20347;-66
2022/09/26 04:19:57;;;;;;;;;;;460.90;2380.80;;;;;;5093498;28;19959;-64
2022/09/26 04:22:24;;;;;;;;;;;460.80;2380.80;;;;;;5093375;28;20006;-63
2022/09/26 04:24:50;;;;;;;;;;;460.90;2380.80;;;;;;5093228;28;20034;-66
2022/09/26 04:27:16;;;;;;;;;;;460.80;2380.80;;;;;;5093442;28;20400;-66
2022/09/26 04:29:43;;;;;;;;;;;460.80;2380.80;;;;;;5093333;28;20282;-63
2022/09/26 04:32:08;;;;;;;;;;;460.80;2380.80;;;;;;5093038;28;20335;-64
2022/09/26 04:34:34;;;;;;;;;;;460.80;2380.80;;;;;;5093108;28;19916;-63
2022/09/26 04:36:59;;;;;;;;;;;460.80;2380.80;;;;;;5093050;28;19909;-67
2022/09/26 04:39:25;;;;;;;;;;;460.80;2380.80;;;;;;5092989;28;20282;-63
2022/09/26 04:41:52;;;;;;;;;;;460.80;2380.80;;;;;;5093002;28;20275;-69
2022/09/26 04:44:17;;;;;;;;;;;460.80;2380.80;;;;;;5092822;28;19926;-63
2022/09/26 04:46:43;;;;;;;;;;;460.90;2380.80;;;;;;5093196;28;19908;-68
2022/09/26 04:49:08;;;;;;;;;;;460.90;2380.80;;;;;;5092917;28;19908;-68
2022/09/26 04:51:35;;;;;;;;;;;461.00;2380.80;;;;;;5092933;28;19908;-63
2022/09/26 04:54:01;;;;;;;;;;;461.10;2380.80;;;;;;5092723;28;19969;-66
2022/09/26 04:56:28;;;;;;;;;;;461.10;2380.80;;;;;;5092589;28;20738;-62
2022/09/26 04:58:55;;;;;;;;;;;461.10;2380.80;;;;;;5092722;28;20374;-63
2022/09/26 05:01:21;;;;;;;;;;;461.10;2380.80;;;;;;5092467;28;19934;-66
2022/09/26 05:03:47;;;;;;;;;;;461.20;2380.80;;;;;;5092515;28;19927;-64
2022/09/26 05:06:13;;;;;;;;;;;461.20;2380.80;;;;;;5092666;28;19995;-63
2022/09/26 05:08:45;;;;;;;;;;;461.20;2380.80;;;;;;5092507;28;19912;-63
2022/09/26 05:11:11;;;;;;;;;;;461.10;2380.80;;;;;;5092139;28;19951;-62
2022/09/26 05:13:37;;;;;;;;;;;460.90;2380.80;;;;;;5092384;28;20041;-68
2022/09/26 05:16:05;;;;;;;;;;;460.80;2380.80;;;;;;5092383;28;19909;-69
2022/09/26 05:18:31;;;;;;;;;;;460.80;2380.80;;;;;;5092142;28;19909;-68
2022/09/26 05:20:56;;;;;;;;;;;460.80;2380.80;;;;;;5092360;28;19912;-68
2022/09/26 05:26:18;;;;;;;;;;;460.80;2380.80;;;;;;5092480;28;19920;-62
2022/09/26 05:28:44;;;;;;;;;;;461.00;2380.80;;;;;;5092256;28;20381;-65
2022/09/26 05:31:10;;;;;;;;;;;461.20;2380.80;;;;;;5091941;28;20021;-61
2022/09/26 05:33:37;;;;;;;;;;;461.30;2380.80;;;;;;5092009;28;19962;-63
2022/09/26 05:36:03;;;;;;;;;;;461.40;2380.80;;;;;;5092014;28;19957;-63
2022/09/26 05:38:28;;;;;;;;;;;461.50;2380.80;;;;;;5091843;28;20316;-68
2022/09/26 05:40:57;;;;;;;;;;;461.50;2380.80;;;;;;5092011;28;19998;-67
2022/09/26 05:43:30;;;;;;;;;;;461.50;2380.80;;;;;;5091823;28;20367;-69
2022/09/26 05:45:59;;;;;;;;;;;461.50;2380.80;;;;;;5091979;28;19915;-62
2022/09/26 05:48:25;;;;;;;;;;;461.50;2380.80;;;;;;5091790;28;19915;-69
2022/09/26 05:50:51;;;;;;;;;;;461.50;2380.80;;;;;;5091462;28;19977;-67
2022/09/26 05:53:18;;;;;;;;;;;461.50;2380.80;;;;;;5092101;28;19916;-66
2022/09/26 05:55:47;;;;;;;;;;;461.50;2380.80;;;;;;5090456;28;19908;-64
2022/09/26 05:58:14;;;;;;;;;;;461.60;2380.80;;;;;;5091720;28;19908;-63
2022/09/26 06:00:39;;;;;;;;;;;486.40;2380.80;;;;;;5091377;28;19908;-70
2022/09/26 06:03:05;;;;;;;;;;;486.40;2380.80;;;;;;5091271;28;19924;-70
2022/09/26 06:05:34;;;;;;;;;;;461.70;2380.80;;;;;;5091167;28;19912;-69
2022/09/26 06:08:02;;;;;;;;;;;461.70;2380.80;;;;;;5091196;28;19914;-69
2022/09/26 06:10:29;;;;;;;;;;;486.40;2380.80;;;;;;5091107;28;19908;-64
2022/09/26 06:12:54;;;;;;;;;;;486.40;2380.80;;;;;;5090857;28;19912;-63
2022/09/26 06:15:20;;;;;;;;;;;486.60;2380.80;;;;;;5091211;28;20330;-67
2022/09/26 06:17:47;;;;;;;;;;;487.20;2380.80;;;;;;5091329;28;20420;-66
2022/09/26 06:20:12;;;;;;;;;;;512.30;2380.80;;;;;;5090944;28;19912;-69
2022/09/26 06:22:41;;;;;;;;;;;563.40;2432.00;;;;;;5089782;28;19988;-63
2022/09/26 06:25:07;;;;;;;;;;;538.30;2406.40;;;;;;5090986;28;19920;-69
2022/09/26 06:27:37;;;;;;;;;;;537.90;2406.40;;;;;;5091007;28;20339;-69
2022/09/26 06:30:04;;;;;;;;;;;538.00;2406.40;;;;;;5091154;28;19908;-69
2022/09/26 06:32:30;;;;;;;;;;;537.90;2406.40;;;;;;5090804;28;19988;-63
2022/09/26 06:34:55;;;;;;;;;;;537.90;2406.40;;;;;;5090857;28;19960;-67
2022/09/26 06:37:22;;;;;;;;;;;538.20;2406.40;;;;;;5090751;28;19916;-67
2022/09/26 06:39:47;;;;;;;;;;;538.10;2406.40;;;;;;5091041;28;19912;-68
2022/09/26 06:42:13;;;;;;;;;;;538.00;2406.40;;;;;;5090808;28;19908;-66
2022/09/26 06:44:39;;;;;;;;;;;537.90;2406.40;;;;;;5090510;28;19967;-68
2022/09/26 06:47:04;;;;;;;;;;;512.90;2380.80;;;;;;5090929;28;19912;-69
2022/09/26 06:49:30;;;;;;;;;;;512.90;2380.80;;;;;;5090511;28;20273;-69
2022/09/26 06:51:55;;;;;;;;;;;537.60;2406.40;;;;;;5090782;28;19912;-69
2022/09/26 06:54:21;;;;;;;;;;;537.70;2406.40;;;;;;5090556;28;20311;-63
2022/09/26 06:56:46;;;;;;;;;;;537.90;2406.40;;;;;;5090732;28;19912;-68
2022/09/26 06:59:15;;;;;;;;;;;538.00;2406.40;;;;;;5090430;28;19908;-63
2022/09/26 07:01:43;;;;;;;;;;;538.20;2406.40;;;;;;5090430;28;19916;-68
2022/09/26 07:04:08;;;;;;;;;;;538.30;2406.40;;;;;;5090066;28;19927;-63
2022/09/26 07:06:34;;;;;;;;;;;538.40;2406.40;;;;;;5090514;28;19985;-63
2022/09/26 07:08:59;;;;;;;;;;;538.40;2406.40;;;;;;5089299;28;19908;-64
2022/09/26 07:11:26;;;;;;;;;;;563.50;2432.00;;;;;;5090626;28;19908;-65
2022/09/26 07:13:52;;;;;;;;;;;563.70;2432.00;;;;;;5090221;28;19908;-67
2022/09/26 07:16:17;;;;;;;;;;;564.10;2432.00;;;;;;5090625;28;20006;-64
2022/09/26 07:18:43;;;;;;;;;;;589.40;2432.00;;;;;;5090641;28;19909;-65
2022/09/26 07:21:08;;;;;;;;;;;614.50;2432.00;;;;;;5090128;28;19908;-64
2022/09/26 07:23:34;;;;;;;;;;;615.10;2432.00;;;;;;5090342;28;19985;-70
2022/09/26 07:26:01;;;;;;;;;;;640.40;2406.40;;;;;;5092606;28;19911;-64
2022/09/26 07:28:27;;;;;;;;;;;666.00;2304.00;;;;;;5094462;28;19948;-68
2022/09/26 07:30:56;;;;;;;;;;;691.40;2124.80;;;;;;5094319;28;19954;-65
2022/09/26 07:33:21;;;;;;;;;;;691.90;2048.00;;;;;;5093120;28;19912;-67
2022/09/26 07:35:47;;;;;;;;;;;691.90;2022.40;;;;;;5094521;28;20342;-63
2022/09/26 07:38:13;;;;;;;;;;;742.60;1971.20;;;;;;5094271;28;19955;-66
2022/09/26 07:40:39;;;;;;;;;;;716.90;1996.80;;;;;;5094197;28;19912;-60
2022/09/26 07:43:05;;;;;;;;;;;665.90;2150.40;;;;;;5094268;28;19908;-60
2022/09/26 07:50:59;;;;;;;;;;;615.10;2329.60;;;;;;5093963;28;19962;-66
2022/09/26 07:53:25;;;;;;;;;;;640.00;2304.00;;;;;;5094073;28;19908;-59
2022/09/26 07:56:04;;;;;;;;;;;640.10;2304.00;;;;;;5093783;28;19908;-65
2022/09/26 07:58:30;;;;;;;;;;;615.00;2355.20;;;;;;5093787;28;20315;-64
2022/09/26 08:00:56;;;;;;;;;;;614.90;2380.80;;;;;;5093886;28;19915;-65
2022/09/26 08:03:25;;;;;;;;;;;614.80;2406.40;;;;;;5093319;28;19924;-65
2022/09/26 08:05:52;;;;;;;;;;;615.10;2406.40;;;;;;5093545;28;20387;-61
2022/09/26 08:08:17;;;;;;;;;;;640.10;2380.80;;;;;;5093971;28;20329;-58
2022/09/26 08:10:44;;;;;;;;;;;615.20;2432.00;;;;;;5093973;28;19977;-61
2022/09/26 08:13:10;;;;;;;;;;;615.10;2432.00;;;;;;5093425;28;19916;-60
2022/09/26 08:15:35;;;;;;;;;;;640.20;2432.00;;;;;;5093534;28;19908;-58
2022/09/26 08:18:01;;;;;;;;;;;640.90;2380.80;;;;;;5093224;28;19973;-62
2022/09/26 08:20:27;;;;;;;;;;;691.40;2278.40;;;;;;5093512;28;19952;-61
2022/09/26 08:22:55;;;;;;;;;;;716.80;2124.80;;;;;;5093177;28;19961;-61
2022/09/26 08:25:21;;;;;;;;;;;717.20;2099.20;;;;;;5093228;28;20247;-62
2022/09/26 08:27:47;;;;;;;;;;;742.70;2048.00;;;;;;5093522;28;19919;-71
2022/09/26 08:30:13;;;;;;;;;;;742.60;2048.00;;;;;;5093345;28;19908;-71
2022/09/26 08:32:39;;;;;;;;;;;743.20;1996.80;;;;;;5092915;28;19908;-70
2022/09/26 08:35:05;;;;;;;;;;;743.30;1971.20;;;;;;5092876;28;19908;-62
2022/09/26 08:37:31;;;;;;;;;;;768.10;1920.00;;;;;;5092741;28;19908;-66
2022/09/26 08:39:56;;;;;;;;;;;743.10;1945.60;;;;;;5093203;28;19916;-68
2022/09/26 08:42:27;;;;;;;;;;;768.80;1843.20;;;;;;5092748;28;19908;-64
2022/09/26 08:45:01;;;;;;;;;;;768.30;1894.40;;;;;;5092998;28;19916;-63
2022/09/26 08:47:29;;;;;;;;;;;743.30;1894.40;;;;;;5092260;28;19908;-68
2022/09/26 08:50:06;;;;;;;;;;;793.80;1843.20;;;;;;5091094;28;19912;-70
2022/09/26 08:52:36;;;;;;;;;;;768.90;1792.00;;;;;;5090427;28;20263;-67
2022/09/26 08:55:25;;;;;;;;;;;768.10;1894.40;;;;;;5090584;28;20366;-63
2022/09/26 08:57:54;;;;;;;;;;;768.20;1868.80;;;;;;5066027;28;20402;-63
2022/09/26 09:00:24;;;;;;;;;;;742.60;1920.00;;;;;;5067524;28;20011;-63
2022/09/26 09:02:50;;;;;;;;;;;742.40;1971.20;;;;;;5064895;28;20574;-67
2022/09/26 09:05:15;;;;;;;;;;;717.20;1971.20;;;;;;5069019;28;19928;-68
2022/09/26 09:07:41;;;;;;;;;;;716.80;1996.80;;;;;;5069383;28;19924;-66
2022/09/26 09:10:09;;;;;;;;;;;691.90;1996.80;;;;;;5066366;28;19921;-63
2022/09/26 09:12:35;;;;;;;;;;;716.80;2022.40;;;;;;5066733;28;19915;-67
2022/09/26 09:15:03;;;;;;;;;;;717.00;1996.80;;;;;;5068889;28;19916;-64
2022/09/26 09:17:41;;;;;;;;;;;692.00;2022.40;;;;;;5069236;28;20062;-62
2022/09/26 09:20:19;;;;;;;;;;;691.30;2073.60;;;;;;5069746;28;19965;-65
2022/09/26 09:22:48;;;;;;;;;;;691.30;2073.60;;;;;;5070040;28;19931;-64
2022/09/26 09:25:26;;;;;;;;;;;691.20;2099.20;;;;;;5069962;28;19920;-66
2022/09/26 09:27:58;;;;;;;;;;;691.30;2099.20;;;;;;5069682;28;19955;-63
2022/09/26 09:30:41;;;;;;;;;;;691.20;2099.20;;;;;;5069827;28;19924;-66
2022/09/26 09:33:12;;;;;;;;;;;665.80;2124.80;;;;;;5069597;28;19913;-60
2022/09/26 09:35:44;;;;;;;;;;;666.00;2150.40;;;;;;5054938;28;20382;-60
2022/09/26 09:38:15;;;;;;;;;;;691.20;2124.80;;;;;;5051721;28;20328;-65
2022/09/26 09:40:43;;;;;;;;;;;666.50;2150.40;;;;;;5051559;28;20361;-65
2022/09/26 09:43:11;;;;;;;;;;;691.20;2150.40;;;;;;5051313;28;19920;-61
2022/09/26 09:45:40;;;;;;;;;;;666.50;2176.00;;;;;;5051929;28;20352;-66
2022/09/26 09:48:12;;;;;;;;;;;666.00;2201.60;;;;;;5050818;28;19909;-60
2022/09/26 09:50:56;;;;;;;;;;;666.00;2227.20;;;;;;5051614;28;19913;-61
2022/09/26 09:53:22;;;;;;;;;;;665.80;2278.40;;;;;;5051352;28;20004;-63
2022/09/26 09:56:01;;;;;;;;;;;666.30;2201.60;;;;;;5051649;28;20015;-61
2022/09/26 09:58:45;;;;;;;;;;;691.30;2176.00;;;;;;5051382;28;19955;-65
2022/09/26 10:01:14;;;;;;;;;;;666.20;2252.80;;;;;;5051165;28;19909;-59
2022/09/26 10:03:42;;;;;;;;;;;665.60;2304.00;;;;;;5067456;28;19924;-65
2022/09/26 10:06:10;;;;;;;;;;;665.70;2304.00;;;;;;5091392;28;20007;-63
2022/09/26 10:08:41;;;;;;;;;;;640.90;2278.40;;;;;;5090240;28;19930;-65
2022/09/26 10:11:12;;;;;;;;;;;640.90;2304.00;;;;;;5091372;28;19915;-62
2022/09/26 10:13:38;;;;;;;;;;;640.50;2329.60;;;;;;5091204;28;19908;-64
2022/09/26 10:16:05;;;;;;;;;;;640.60;2406.40;;;;;;5091404;28;19909;-65
2022/09/26 10:18:31;;;;;;;;;;;640.40;2380.80;;;;;;5091153;28;19934;-65
2022/09/26 10:20:58;;;;;;;;;;;640.30;2406.40;;;;;;5091266;28;19908;-65
2022/09/26 10:23:35;;;;;;;;;;;640.60;2380.80;;;;;;5091243;28;19916;-65
2022/09/26 10:26:02;;;;;;;;;;;640.70;2380.80;;;;;;5090927;28;19968;-64
2022/09/26 10:28:45;;;;;;;;;;;640.90;2355.20;;;;;;5091240;28;19918;-59
2022/09/26 10:31:20;;;;;;;;;;;665.90;2380.80;;;;;;5091080;28;19958;-65
2022/09/26 10:33:46;;;;;;;;;;;666.10;2304.00;;;;;;5091186;28;19916;-64
2022/09/26 10:36:19;;;;;;;;;;;666.20;2304.00;;;;;;5090776;28;19915;-65
2022/09/26 10:40:43;;;;;;;;;;;666.40;2329.60;;;;;;5091106;28;20453;-65
2022/09/26 10:41:37;;;;;;;;;;;666.10;2304.00;;;;;;5090935;28;19908;-66
2022/09/26 10:44:03;;;;;;;;;;;666.50;2252.80;;;;;;5090966;28;19923;-65
2022/09/26 10:46:29;;;;;;;;;;;691.20;2227.20;;;;;;5090560;28;19908;-65
2022/09/26 10:48:57;;;;;;;;;;;691.30;2227.20;;;;;;5090903;28;19908;-61
2022/09/26 10:51:44;;;;;;;;;;;666.10;2278.40;;;;;;5090646;28;20338;-60
2022/09/26 10:54:10;;;;;;;;;;;666.30;2304.00;;;;;;5090354;28;19970;-65
2022/09/26 10:56:58;;;;;;;;;;;666.10;2278.40;;;;;;5090598;28;19912;-65
2022/09/26 10:59:26;;;;;;;;;;;666.00;2304.00;;;;;;5090514;28;20263;-64
2022/09/26 11:01:55;;;;;;;;;;;665.80;2329.60;;;;;;5090537;28;19912;-65
2022/09/26 11:07:24;;;;;;;;;;;665.90;2406.40;;;;;;5091119;28;19947;-63
2022/09/26 11:09:51;;;;;;;;;;;665.90;2380.80;;;;;;5090429;28;19908;-65
2022/09/26 11:12:21;;;;;;;;;;;665.80;2406.40;;;;;;5090609;28;19962;-62
2022/09/26 11:14:51;;;;;;;;;;;665.80;2432.00;;;;;;5090651;28;19908;-66
2022/09/26 11:17:18;;;;;;;;;;;665.80;2406.40;;;;;;5090604;28;19914;-66
2022/09/26 11:19:47;;;;;;;;;;;665.90;2380.80;;;;;;5090576;28;20281;-65
2022/09/26 11:22:18;;;;;;;;;;;665.90;2406.40;;;;;;5090180;28;19969;-64
2022/09/26 11:25:02;;;;;;;;;;;665.80;2406.40;;;;;;5090389;28;19964;-61
2022/09/26 11:27:31;;;;;;;;;;;665.90;2432.00;;;;;;5090391;28;19943;-60
2022/09/26 11:30:01;;;;;;;;;;;665.90;2380.80;;;;;;5090315;28;20416;-60
2022/09/26 11:32:31;;;;;;;;;;;665.90;2355.20;;;;;;5090247;28;19915;-66
2022/09/26 11:35:01;;;;;;;;;;;665.90;2329.60;;;;;;5088903;28;19924;-65
2022/09/26 11:37:35;;;;;;;;;;;665.60;2380.80;;;;;;5090185;28;19913;-66
2022/09/26 11:40:09;;;;;;;;;;;640.90;2355.20;;;;;;5090213;28;19908;-61
2022/09/26 11:42:37;;;;;;;;;;;640.80;2355.20;;;;;;5090268;28;19908;-60
2022/09/26 11:45:14;;;;;;;;;;;640.70;2355.20;;;;;;5089981;28;19923;-66
2022/09/26 11:47:40;;;;;;;;;;;640.60;2329.60;;;;;;5090004;28;20273;-63
2022/09/26 11:50:31;;;;;;;;;;;640.50;2355.20;;;;;;5090148;28;20007;-62
2022/09/26 11:53:15;;;;;;;;;;;640.70;2329.60;;;;;;5090413;28;19919;-66
2022/09/26 11:55:41;;;;;;;;;;;640.60;2304.00;;;;;;5089939;28;19916;-60
2022/09/26 11:58:21;;;;;;;;;;;640.40;2380.80;;;;;;5090117;28;20324;-60
2022/09/26 12:01:06;;;;;;;;;;;640.20;2406.40;;;;;;5090075;28;19990;-60
2022/09/26 12:03:52;;;;;;;;;;;640.20;2406.40;;;;;;5089554;28;20289;-63
2022/09/26 12:06:18;;;;;;;;;;;640.20;2406.40;;;;;;5090063;28;20263;-61
2022/09/26 12:08:52;;;;;;;;;;;640.10;2432.00;;;;;;5088442;28;19916;-60
2022/09/26 12:11:32;;;;;;;;;;;640.10;2432.00;;;;;;5091140;28;19911;-61
2022/09/26 12:14:08;;;;;;;;;;;640.10;2432.00;;;;;;5093768;28;19908;-61
2022/09/26 12:16:44;;;;;;;;;;;640.10;2432.00;;;;;;5093374;28;20372;-64
2022/09/26 12:19:30;;;;;;;;;;;640.20;2406.40;;;;;;5093387;28;19914;-65
2022/09/26 12:25:06;;;;;;;;;;;640.10;2432.00;;;;;;5093134;28;19923;-65
2022/09/26 12:27:50;;;;;;;;;;;640.20;2432.00;;;;;;5093152;28;19908;-65
2022/09/26 12:30:20;;;;;;;;;;;640.10;2432.00;;;;;;5093347;28;19909;-65
2022/09/26 12:32:58;;;;;;;;;;;640.00;2432.00;;;;;;5093370;28;19908;-65
2022/09/26 12:35:28;;;;;;;;;;;640.10;2432.00;;;;;;5093195;28;19908;-60
2022/09/26 12:37:59;;;;;;;;;;;640.10;2432.00;;;;;;5093227;28;20374;-66
2022/09/26 12:40:37;;;;;;;;;;;640.10;2432.00;;;;;;5093052;28;19908;-63
2022/09/26 12:43:21;;;;;;;;;;;640.10;2432.00;;;;;;5092893;28;19915;-65
2022/09/26 12:45:53;;;;;;;;;;;640.00;2432.00;;;;;;5093233;28;19920;-61
2022/09/26 12:48:28;;;;;;;;;;;615.30;2432.00;;;;;;5092742;28;19999;-63
2022/09/26 12:51:09;;;;;;;;;;;615.10;2432.00;;;;;;5092655;28;19912;-66
2022/09/26 12:53:46;;;;;;;;;;;615.00;2432.00;;;;;;5092800;28;19908;-60
2022/09/26 12:56:32;;;;;;;;;;;614.90;2432.00;;;;;;5092581;28;20408;-64
2022/09/26 12:59:07;;;;;;;;;;;614.90;2432.00;;;;;;5092804;28;19912;-60
2022/09/26 13:01:46;;;;;;;;;;;614.80;2432.00;;;;;;5092729;28;19912;-60
2022/09/26 13:04:20;;;;;;;;;;;614.70;2432.00;;;;;;5092237;28;19994;-61
2022/09/26 13:07:18;;;;;;;;;;;614.90;2432.00;;;;;;5092606;28;19908;-66
2022/09/26 13:09:56;;;;;;;;;;;614.50;2432.00;;;;;;5070265;28;19971;-66
2022/09/26 13:12:25;;;;;;;;;;;614.50;2432.00;;;;;;5069910;28;19918;-66
2022/09/26 13:15:09;;;;;;;;;;;614.50;2432.00;;;;;;5069916;28;20374;-65
2022/09/26 13:17:43;;;;;;;;;;;589.70;2432.00;;;;;;5070078;28;19912;-62
2022/09/26 13:20:09;;;;;;;;;;;589.70;2432.00;;;;;;5069761;28;19947;-61
2022/09/26 13:22:38;;;;;;;;;;;589.70;2432.00;;;;;;5053316;28;20021;-66
2022/09/26 13:25:06;;;;;;;;;;;589.70;2432.00;;;;;;5069823;28;20386;-66
2022/09/26 13:27:35;;;;;;;;;;;589.70;2432.00;;;;;;5069584;28;20298;-61
2022/09/26 13:30:04;;;;;;;;;;;589.60;2432.00;;;;;;5069629;28;19908;-65
2022/09/26 13:32:40;;;;;;;;;;;589.50;2432.00;;;;;;5069411;28;20267;-60
2022/09/26 13:35:16;;;;;;;;;;;589.40;2432.00;;;;;;5069743;28;19958;-60
2022/09/26 13:37:53;;;;;;;;;;;589.40;2432.00;;;;;;5069389;28;19999;-64
2022/09/26 13:40:22;;;;;;;;;;;589.50;2432.00;;;;;;5069410;28;19920;-63
2022/09/26 13:43:17;;;;;;;;;;;589.50;2432.00;;;;;;5069618;28;19919;-60
2022/09/26 13:45:47;;;;;;;;;;;589.40;2432.00;;;;;;5071283;28;20274;-59
2022/09/26 13:48:21;;;;;;;;;;;589.50;2432.00;;;;;;5091597;28;20389;-60
2022/09/26 13:50:54;;;;;;;;;;;589.50;2432.00;;;;;;5091958;28;20006;-65
2022/09/26 13:53:38;;;;;;;;;;;589.50;2432.00;;;;;;5091509;28;19908;-66
2022/09/26 13:56:23;;;;;;;;;;;589.50;2432.00;;;;;;5091706;28;20004;-65
2022/09/26 13:59:00;;;;;;;;;;;589.50;2432.00;;;;;;5091661;28;20718;-59
2022/09/26 14:01:26;;;;;;;;;;;589.50;2432.00;;;;;;5091612;28;19960;-59
2022/09/26 14:04:10;;;;;;;;;;;589.60;2432.00;;;;;;5090958;28;19924;-65
2022/09/26 14:06:36;;;;;;;;;;;589.40;2432.00;;;;;;5090701;28;20362;-59
2022/09/26 14:09:24;;;;;;;;;;;589.40;2432.00;;;;;;5091169;28;19931;-66
2022/09/26 14:11:50;;;;;;;;;;;589.20;2432.00;;;;;;5091147;28;20359;-58